sensor_id;sensor_type;location;lat;lon;timestamp;P1;durP1;ratioP1;P2;durP2;ratioP2
6077;SDS011;3067;49.470;10.394;2022-08-06T00:02:00;6.13;;;2.43;;
6077;SDS011;3067;49.470;10.394;2022-08-06T00:04:27;3.03;;;1.73;;
6077;SDS011;3067;49.470;10.394;2022-08-06T00:06:55;2.23;;;2.13;;
6077;SDS011;3067;49.470;10.394;2022-08-06T00:09:22;2.53;;;2.33;;
6077;SDS011;3067;49.470;10.394;2022-08-06T00:11:51;2.27;;;2.07;;
6077;SDS011;3067;49.470;10.394;2022-08-06T00:14:18;2.37;;;2.20;;
6077;SDS011;3067;49.470;10.394;2022-08-06T00:16:45;7.57;;;2.40;;
6077;SDS011;3067;49.470;10.394;2022-08-06T00:19:13;4.60;;;1.73;;
6077;SDS011;3067;49.470;10.394;2022-08-06T00:21:40;2.50;;;1.70;;
6077;SDS011;3067;49.470;10.394;2022-08-06T00:24:07;2.17;;;2.07;;
6077;SDS011;3067;49.470;10.394;2022-08-06T00:26:34;4.60;;;1.80;;
6077;SDS011;3067;49.470;10.394;2022-08-06T00:29:04;2.10;;;2.00;;
6077;SDS011;3067;49.470;10.394;2022-08-06T00:31:31;1.90;;;1.80;;
6077;SDS011;3067;49.470;10.394;2022-08-06T00:33:59;2.63;;;1.80;;
6077;SDS011;3067;49.470;10.394;2022-08-06T00:36:28;2.00;;;1.87;;
6077;SDS011;3067;49.470;10.394;2022-08-06T00:38:56;2.10;;;2.00;;
6077;SDS011;3067;49.470;10.394;2022-08-06T00:41:23;2.00;;;1.90;;
6077;SDS011;3067;49.470;10.394;2022-08-06T00:43:51;2.23;;;2.03;;
6077;SDS011;3067;49.470;10.394;2022-08-06T00:46:20;2.03;;;1.73;;
6077;SDS011;3067;49.470;10.394;2022-08-06T00:48:47;2.17;;;2.07;;
6077;SDS011;3067;49.470;10.394;2022-08-06T00:51:14;2.20;;;2.00;;
6077;SDS011;3067;49.470;10.394;2022-08-06T00:53:42;2.80;;;2.00;;
6077;SDS011;3067;49.470;10.394;2022-08-06T00:56:09;2.33;;;2.23;;
6077;SDS011;3067;49.470;10.394;2022-08-06T00:58:37;2.70;;;2.03;;
6077;SDS011;3067;49.470;10.394;2022-08-06T01:01:04;1.93;;;1.80;;
6077;SDS011;3067;49.470;10.394;2022-08-06T01:03:34;2.40;;;1.80;;
6077;SDS011;3067;49.470;10.394;2022-08-06T01:06:01;2.23;;;2.10;;
6077;SDS011;3067;49.470;10.394;2022-08-06T01:08:28;2.10;;;2.00;;
6077;SDS011;3067;49.470;10.394;2022-08-06T01:10:56;2.00;;;1.90;;
6077;SDS011;3067;49.470;10.394;2022-08-06T01:13:23;2.90;;;2.40;;
6077;SDS011;3067;49.470;10.394;2022-08-06T01:15:52;4.50;;;2.07;;
6077;SDS011;3067;49.470;10.394;2022-08-06T01:18:21;2.07;;;1.83;;
6077;SDS011;3067;49.470;10.394;2022-08-06T01:20:54;1.80;;;1.70;;
6077;SDS011;3067;49.470;10.394;2022-08-06T01:23:31;1.90;;;1.80;;
6077;SDS011;3067;49.470;10.394;2022-08-06T01:26:17;2.33;;;2.00;;
6077;SDS011;3067;49.470;10.394;2022-08-06T01:28:51;9.70;;;2.13;;
6077;SDS011;3067;49.470;10.394;2022-08-06T01:31:21;2.50;;;2.30;;
6077;SDS011;3067;49.470;10.394;2022-08-06T01:33:50;13.27;;;2.20;;
6077;SDS011;3067;49.470;10.394;2022-08-06T01:36:20;2.23;;;2.13;;
6077;SDS011;3067;49.470;10.394;2022-08-06T01:38:51;3.77;;;2.00;;
6077;SDS011;3067;49.470;10.394;2022-08-06T01:41:21;3.23;;;1.97;;
6077;SDS011;3067;49.470;10.394;2022-08-06T01:44:04;1.83;;;1.73;;
6077;SDS011;3067;49.470;10.394;2022-08-06T01:46:32;2.70;;;1.90;;
6077;SDS011;3067;49.470;10.394;2022-08-06T01:49:00;3.27;;;2.00;;
6077;SDS011;3067;49.470;10.394;2022-08-06T01:51:28;2.03;;;1.83;;
6077;SDS011;3067;49.470;10.394;2022-08-06T01:53:56;2.10;;;2.00;;
6077;SDS011;3067;49.470;10.394;2022-08-06T01:56:23;2.20;;;2.10;;
6077;SDS011;3067;49.470;10.394;2022-08-06T01:58:51;4.40;;;2.00;;
6077;SDS011;3067;49.470;10.394;2022-08-06T02:01:20;2.00;;;1.80;;
6077;SDS011;3067;49.470;10.394;2022-08-06T02:03:49;2.10;;;2.00;;
6077;SDS011;3067;49.470;10.394;2022-08-06T02:06:19;2.53;;;2.00;;
6077;SDS011;3067;49.470;10.394;2022-08-06T02:08:47;4.50;;;2.17;;
6077;SDS011;3067;49.470;10.394;2022-08-06T02:11:16;2.30;;;2.20;;
6077;SDS011;3067;49.470;10.394;2022-08-06T02:13:43;2.53;;;2.33;;
6077;SDS011;3067;49.470;10.394;2022-08-06T02:16:12;3.57;;;1.97;;
6077;SDS011;3067;49.470;10.394;2022-08-06T02:18:42;2.93;;;1.90;;
6077;SDS011;3067;49.470;10.394;2022-08-06T02:21:12;3.13;;;2.23;;
6077;SDS011;3067;49.470;10.394;2022-08-06T02:23:42;6.13;;;2.13;;
6077;SDS011;3067;49.470;10.394;2022-08-06T02:26:10;4.30;;;2.20;;
6077;SDS011;3067;49.470;10.394;2022-08-06T02:28:38;2.80;;;2.00;;
6077;SDS011;3067;49.470;10.394;2022-08-06T02:31:06;2.90;;;2.20;;
6077;SDS011;3067;49.470;10.394;2022-08-06T02:33:34;3.37;;;2.40;;
6077;SDS011;3067;49.470;10.394;2022-08-06T02:36:03;1.93;;;1.83;;
6077;SDS011;3067;49.470;10.394;2022-08-06T02:38:35;2.43;;;2.33;;
6077;SDS011;3067;49.470;10.394;2022-08-06T02:41:11;2.00;;;1.90;;
6077;SDS011;3067;49.470;10.394;2022-08-06T02:43:43;2.67;;;2.57;;
6077;SDS011;3067;49.470;10.394;2022-08-06T02:46:15;2.47;;;2.37;;
6077;SDS011;3067;49.470;10.394;2022-08-06T02:48:46;3.80;;;2.50;;
6077;SDS011;3067;49.470;10.394;2022-08-06T02:51:18;3.13;;;2.57;;
6077;SDS011;3067;49.470;10.394;2022-08-06T02:53:51;2.40;;;2.30;;
6077;SDS011;3067;49.470;10.394;2022-08-06T02:56:21;2.37;;;2.27;;
6077;SDS011;3067;49.470;10.394;2022-08-06T02:58:49;3.53;;;2.57;;
6077;SDS011;3067;49.470;10.394;2022-08-06T03:01:20;3.20;;;2.43;;
6077;SDS011;3067;49.470;10.394;2022-08-06T03:03:48;2.83;;;2.63;;
6077;SDS011;3067;49.470;10.394;2022-08-06T03:06:17;3.00;;;2.80;;
6077;SDS011;3067;49.470;10.394;2022-08-06T03:08:46;2.40;;;2.30;;
6077;SDS011;3067;49.470;10.394;2022-08-06T03:11:13;2.40;;;2.30;;
6077;SDS011;3067;49.470;10.394;2022-08-06T03:13:43;2.33;;;2.13;;
6077;SDS011;3067;49.470;10.394;2022-08-06T03:16:10;2.10;;;1.90;;
6077;SDS011;3067;49.470;10.394;2022-08-06T03:18:38;3.60;;;2.30;;
6077;SDS011;3067;49.470;10.394;2022-08-06T03:21:09;4.87;;;2.30;;
6077;SDS011;3067;49.470;10.394;2022-08-06T03:23:38;2.50;;;2.40;;
6077;SDS011;3067;49.470;10.394;2022-08-06T03:26:06;3.13;;;2.30;;
6077;SDS011;3067;49.470;10.394;2022-08-06T03:28:34;5.43;;;2.80;;
6077;SDS011;3067;49.470;10.394;2022-08-06T03:31:03;2.80;;;2.60;;
6077;SDS011;3067;49.470;10.394;2022-08-06T03:33:31;2.33;;;2.13;;
6077;SDS011;3067;49.470;10.394;2022-08-06T03:36:00;4.70;;;2.70;;
6077;SDS011;3067;49.470;10.394;2022-08-06T03:38:28;2.50;;;2.30;;
6077;SDS011;3067;49.470;10.394;2022-08-06T03:40:59;2.60;;;2.40;;
6077;SDS011;3067;49.470;10.394;2022-08-06T03:43:27;2.37;;;2.27;;
6077;SDS011;3067;49.470;10.394;2022-08-06T03:45:56;3.37;;;2.53;;
6077;SDS011;3067;49.470;10.394;2022-08-06T03:48:26;3.07;;;2.50;;
6077;SDS011;3067;49.470;10.394;2022-08-06T03:50:54;2.87;;;2.50;;
6077;SDS011;3067;49.470;10.394;2022-08-06T03:53:23;3.00;;;2.70;;
6077;SDS011;3067;49.470;10.394;2022-08-06T03:55:52;4.60;;;2.97;;
6077;SDS011;3067;49.470;10.394;2022-08-06T03:58:23;3.10;;;2.90;;
6077;SDS011;3067;49.470;10.394;2022-08-06T04:00:51;3.80;;;2.77;;
6077;SDS011;3067;49.470;10.394;2022-08-06T04:03:19;3.97;;;2.90;;
6077;SDS011;3067;49.470;10.394;2022-08-06T04:05:47;3.03;;;2.83;;
6077;SDS011;3067;49.470;10.394;2022-08-06T04:08:14;3.10;;;3.00;;
6077;SDS011;3067;49.470;10.394;2022-08-06T04:10:43;3.20;;;3.00;;
6077;SDS011;3067;49.470;10.394;2022-08-06T04:13:12;4.73;;;2.60;;
6077;SDS011;3067;49.470;10.394;2022-08-06T04:15:41;2.70;;;2.60;;
6077;SDS011;3067;49.470;10.394;2022-08-06T04:18:10;3.63;;;3.30;;
6077;SDS011;3067;49.470;10.394;2022-08-06T04:20:38;3.10;;;2.90;;
6077;SDS011;3067;49.470;10.394;2022-08-06T04:23:06;3.40;;;3.10;;
6077;SDS011;3067;49.470;10.394;2022-08-06T04:25:34;3.47;;;3.27;;
6077;SDS011;3067;49.470;10.394;2022-08-06T04:28:03;3.00;;;2.90;;
6077;SDS011;3067;49.470;10.394;2022-08-06T04:30:31;3.20;;;3.00;;
6077;SDS011;3067;49.470;10.394;2022-08-06T04:33:01;3.70;;;3.40;;
6077;SDS011;3067;49.470;10.394;2022-08-06T04:35:29;4.03;;;2.97;;
6077;SDS011;3067;49.470;10.394;2022-08-06T04:37:57;12.73;;;2.80;;
6077;SDS011;3067;49.470;10.394;2022-08-06T04:40:25;3.30;;;3.10;;
6077;SDS011;3067;49.470;10.394;2022-08-06T04:42:53;7.50;;;2.73;;
6077;SDS011;3067;49.470;10.394;2022-08-06T04:45:20;3.27;;;2.80;;
6077;SDS011;3067;49.470;10.394;2022-08-06T04:47:48;5.13;;;2.50;;
6077;SDS011;3067;49.470;10.394;2022-08-06T04:50:17;3.30;;;3.00;;
6077;SDS011;3067;49.470;10.394;2022-08-06T04:52:44;2.83;;;2.73;;
6077;SDS011;3067;49.470;10.394;2022-08-06T04:55:11;6.10;;;2.70;;
6077;SDS011;3067;49.470;10.394;2022-08-06T04:57:39;5.73;;;3.00;;
6077;SDS011;3067;49.470;10.394;2022-08-06T05:00:06;2.70;;;2.50;;
6077;SDS011;3067;49.470;10.394;2022-08-06T05:02:34;3.00;;;2.80;;
6077;SDS011;3067;49.470;10.394;2022-08-06T05:05:01;3.10;;;3.00;;
6077;SDS011;3067;49.470;10.394;2022-08-06T05:07:31;2.90;;;2.80;;
6077;SDS011;3067;49.470;10.394;2022-08-06T05:09:58;4.03;;;2.70;;
6077;SDS011;3067;49.470;10.394;2022-08-06T05:12:27;3.13;;;2.93;;
6077;SDS011;3067;49.470;10.394;2022-08-06T05:14:55;3.20;;;2.90;;
6077;SDS011;3067;49.470;10.394;2022-08-06T05:17:26;3.50;;;3.20;;
6077;SDS011;3067;49.470;10.394;2022-08-06T05:19:57;3.33;;;3.13;;
6077;SDS011;3067;49.470;10.394;2022-08-06T05:22:25;4.93;;;3.17;;
6077;SDS011;3067;49.470;10.394;2022-08-06T05:24:55;4.37;;;3.40;;
6077;SDS011;3067;49.470;10.394;2022-08-06T05:27:23;4.03;;;3.40;;
6077;SDS011;3067;49.470;10.394;2022-08-06T05:29:50;3.00;;;2.80;;
6077;SDS011;3067;49.470;10.394;2022-08-06T05:32:17;4.47;;;3.10;;
6077;SDS011;3067;49.470;10.394;2022-08-06T05:34:45;2.90;;;2.70;;
6077;SDS011;3067;49.470;10.394;2022-08-06T05:37:13;5.60;;;3.27;;
6077;SDS011;3067;49.470;10.394;2022-08-06T05:39:40;3.63;;;3.07;;
6077;SDS011;3067;49.470;10.394;2022-08-06T05:42:09;3.27;;;3.07;;
6077;SDS011;3067;49.470;10.394;2022-08-06T05:44:36;2.90;;;2.80;;
6077;SDS011;3067;49.470;10.394;2022-08-06T05:47:04;3.40;;;3.10;;
6077;SDS011;3067;49.470;10.394;2022-08-06T05:49:33;3.63;;;3.00;;
6077;SDS011;3067;49.470;10.394;2022-08-06T05:52:02;2.90;;;2.80;;
6077;SDS011;3067;49.470;10.394;2022-08-06T05:54:33;3.73;;;2.93;;
6077;SDS011;3067;49.470;10.394;2022-08-06T05:57:02;2.83;;;2.63;;
6077;SDS011;3067;49.470;10.394;2022-08-06T05:59:33;2.93;;;2.73;;
6077;SDS011;3067;49.470;10.394;2022-08-06T06:02:02;2.90;;;2.80;;
6077;SDS011;3067;49.470;10.394;2022-08-06T06:04:30;7.73;;;3.30;;
6077;SDS011;3067;49.470;10.394;2022-08-06T06:06:58;3.17;;;2.97;;
6077;SDS011;3067;49.470;10.394;2022-08-06T06:09:27;2.10;;;2.00;;
6077;SDS011;3067;49.470;10.394;2022-08-06T06:11:55;2.60;;;2.40;;
6077;SDS011;3067;49.470;10.394;2022-08-06T06:14:26;2.43;;;2.20;;
6077;SDS011;3067;49.470;10.394;2022-08-06T06:16:58;4.47;;;2.03;;
6077;SDS011;3067;49.470;10.394;2022-08-06T06:19:31;4.97;;;2.20;;
6077;SDS011;3067;49.470;10.394;2022-08-06T06:22:03;2.43;;;2.23;;
6077;SDS011;3067;49.470;10.394;2022-08-06T06:24:32;2.40;;;2.20;;
6077;SDS011;3067;49.470;10.394;2022-08-06T06:27:04;2.30;;;2.10;;
6077;SDS011;3067;49.470;10.394;2022-08-06T06:29:36;2.10;;;2.00;;
6077;SDS011;3067;49.470;10.394;2022-08-06T06:32:10;3.90;;;2.00;;
6077;SDS011;3067;49.470;10.394;2022-08-06T06:34:43;1.83;;;1.73;;
6077;SDS011;3067;49.470;10.394;2022-08-06T06:37:17;5.23;;;2.37;;
6077;SDS011;3067;49.470;10.394;2022-08-06T06:39:48;2.57;;;2.23;;
6077;SDS011;3067;49.470;10.394;2022-08-06T06:42:24;2.10;;;1.93;;
6077;SDS011;3067;49.470;10.394;2022-08-06T06:44:53;2.57;;;1.90;;
6077;SDS011;3067;49.470;10.394;2022-08-06T06:47:24;2.43;;;2.20;;
6077;SDS011;3067;49.470;10.394;2022-08-06T06:49:56;3.63;;;1.83;;
6077;SDS011;3067;49.470;10.394;2022-08-06T06:52:25;2.70;;;2.07;;
6077;SDS011;3067;49.470;10.394;2022-08-06T06:54:54;2.00;;;1.90;;
6077;SDS011;3067;49.470;10.394;2022-08-06T06:57:26;2.20;;;2.10;;
6077;SDS011;3067;49.470;10.394;2022-08-06T06:59:56;1.90;;;1.80;;
6077;SDS011;3067;49.470;10.394;2022-08-06T07:02:28;3.43;;;1.90;;
6077;SDS011;3067;49.470;10.394;2022-08-06T07:04:57;2.03;;;1.93;;
6077;SDS011;3067;49.470;10.394;2022-08-06T07:07:27;9.60;;;2.50;;
6077;SDS011;3067;49.470;10.394;2022-08-06T07:09:56;1.83;;;1.73;;
6077;SDS011;3067;49.470;10.394;2022-08-06T07:12:24;3.60;;;1.90;;
6077;SDS011;3067;49.470;10.394;2022-08-06T07:14:53;2.30;;;1.70;;
6077;SDS011;3067;49.470;10.394;2022-08-06T07:17:21;2.00;;;1.90;;
6077;SDS011;3067;49.470;10.394;2022-08-06T07:19:52;1.90;;;1.80;;
6077;SDS011;3067;49.470;10.394;2022-08-06T07:22:20;1.80;;;1.70;;
6077;SDS011;3067;49.470;10.394;2022-08-06T07:24:48;1.60;;;1.50;;
6077;SDS011;3067;49.470;10.394;2022-08-06T07:27:17;1.93;;;1.83;;
6077;SDS011;3067;49.470;10.394;2022-08-06T07:29:44;3.70;;;1.47;;
6077;SDS011;3067;49.470;10.394;2022-08-06T07:32:12;4.27;;;1.57;;
6077;SDS011;3067;49.470;10.394;2022-08-06T07:34:40;2.20;;;1.80;;
6077;SDS011;3067;49.470;10.394;2022-08-06T07:37:09;1.60;;;1.50;;
6077;SDS011;3067;49.470;10.394;2022-08-06T07:39:38;4.40;;;1.80;;
6077;SDS011;3067;49.470;10.394;2022-08-06T07:42:07;3.80;;;1.40;;
6077;SDS011;3067;49.470;10.394;2022-08-06T07:44:35;1.87;;;1.70;;
6077;SDS011;3067;49.470;10.394;2022-08-06T07:47:04;2.63;;;1.27;;
6077;SDS011;3067;49.470;10.394;2022-08-06T07:49:35;1.83;;;1.40;;
6077;SDS011;3067;49.470;10.394;2022-08-06T07:52:03;1.53;;;1.23;;
6077;SDS011;3067;49.470;10.394;2022-08-06T07:54:33;1.53;;;1.43;;
6077;SDS011;3067;49.470;10.394;2022-08-06T07:57:00;3.33;;;1.60;;
6077;SDS011;3067;49.470;10.394;2022-08-06T07:59:28;2.80;;;1.30;;
6077;SDS011;3067;49.470;10.394;2022-08-06T08:01:56;1.40;;;1.30;;
6077;SDS011;3067;49.470;10.394;2022-08-06T08:04:24;1.20;;;1.00;;
6077;SDS011;3067;49.470;10.394;2022-08-06T08:07:09;1.60;;;1.50;;
6077;SDS011;3067;49.470;10.394;2022-08-06T08:09:38;4.40;;;1.30;;
6077;SDS011;3067;49.470;10.394;2022-08-06T08:12:06;2.60;;;1.20;;
6077;SDS011;3067;49.470;10.394;2022-08-06T08:14:34;3.60;;;1.20;;
6077;SDS011;3067;49.470;10.394;2022-08-06T08:17:01;2.00;;;1.00;;
6077;SDS011;3067;49.470;10.394;2022-08-06T08:19:29;2.07;;;1.20;;
6077;SDS011;3067;49.470;10.394;2022-08-06T08:21:57;3.53;;;1.30;;
6077;SDS011;3067;49.470;10.394;2022-08-06T08:24:25;5.87;;;1.20;;
6077;SDS011;3067;49.470;10.394;2022-08-06T08:26:54;3.03;;;1.17;;
6077;SDS011;3067;49.470;10.394;2022-08-06T08:29:22;1.33;;;1.13;;
6077;SDS011;3067;49.470;10.394;2022-08-06T08:31:49;1.27;;;1.17;;
6077;SDS011;3067;49.470;10.394;2022-08-06T08:34:17;1.13;;;1.10;;
6077;SDS011;3067;49.470;10.394;2022-08-06T08:36:44;4.97;;;1.00;;
6077;SDS011;3067;49.470;10.394;2022-08-06T08:39:11;2.80;;;1.00;;
6077;SDS011;3067;49.470;10.394;2022-08-06T08:41:40;2.80;;;0.97;;
6077;SDS011;3067;49.470;10.394;2022-08-06T08:44:11;1.10;;;1.00;;
6077;SDS011;3067;49.470;10.394;2022-08-06T08:46:40;1.30;;;1.20;;
6077;SDS011;3067;49.470;10.394;2022-08-06T08:49:13;2.40;;;1.10;;
6077;SDS011;3067;49.470;10.394;2022-08-06T08:51:40;1.10;;;1.00;;
6077;SDS011;3067;49.470;10.394;2022-08-06T08:54:09;4.67;;;1.10;;
6077;SDS011;3067;49.470;10.394;2022-08-06T08:56:36;1.90;;;1.20;;
6077;SDS011;3067;49.470;10.394;2022-08-06T08:59:04;3.33;;;1.40;;
6077;SDS011;3067;49.470;10.394;2022-08-06T09:01:34;1.37;;;0.90;;
6077;SDS011;3067;49.470;10.394;2022-08-06T09:04:02;1.00;;;1.00;;
6077;SDS011;3067;49.470;10.394;2022-08-06T09:06:30;1.30;;;1.20;;
6077;SDS011;3067;49.470;10.394;2022-08-06T09:08:58;5.80;;;1.23;;
6077;SDS011;3067;49.470;10.394;2022-08-06T09:11:28;1.27;;;1.10;;
6077;SDS011;3067;49.470;10.394;2022-08-06T09:13:56;6.03;;;1.20;;
6077;SDS011;3067;49.470;10.394;2022-08-06T09:16:23;2.63;;;1.27;;
6077;SDS011;3067;49.470;10.394;2022-08-06T09:18:52;1.13;;;1.13;;
6077;SDS011;3067;49.470;10.394;2022-08-06T09:21:20;7.13;;;1.10;;
6077;SDS011;3067;49.470;10.394;2022-08-06T09:23:47;1.43;;;1.10;;
6077;SDS011;3067;49.470;10.394;2022-08-06T09:26:14;9.43;;;1.03;;
6077;SDS011;3067;49.470;10.394;2022-08-06T09:28:43;2.10;;;0.90;;
6077;SDS011;3067;49.470;10.394;2022-08-06T09:31:11;1.10;;;1.00;;
6077;SDS011;3067;49.470;10.394;2022-08-06T09:33:39;1.93;;;1.03;;
6077;SDS011;3067;49.470;10.394;2022-08-06T09:36:10;1.20;;;1.10;;
6077;SDS011;3067;49.470;10.394;2022-08-06T09:38:47;1.00;;;1.00;;
6077;SDS011;3067;49.470;10.394;2022-08-06T09:41:15;0.90;;;0.90;;
6077;SDS011;3067;49.470;10.394;2022-08-06T09:43:43;2.90;;;1.13;;
6077;SDS011;3067;49.470;10.394;2022-08-06T09:46:11;1.40;;;0.90;;
6077;SDS011;3067;49.470;10.394;2022-08-06T09:48:46;0.87;;;0.87;;
6077;SDS011;3067;49.470;10.394;2022-08-06T09:51:23;3.53;;;1.20;;
6077;SDS011;3067;49.470;10.394;2022-08-06T09:53:51;2.27;;;0.90;;
6077;SDS011;3067;49.470;10.394;2022-08-06T09:56:19;2.63;;;1.20;;
6077;SDS011;3067;49.470;10.394;2022-08-06T09:58:46;8.70;;;0.90;;
6077;SDS011;3067;49.470;10.394;2022-08-06T10:01:15;1.00;;;0.90;;
6077;SDS011;3067;49.470;10.394;2022-08-06T10:03:42;2.87;;;0.90;;
6077;SDS011;3067;49.470;10.394;2022-08-06T10:06:10;3.37;;;0.90;;
6077;SDS011;3067;49.470;10.394;2022-08-06T10:08:39;3.27;;;0.80;;
6077;SDS011;3067;49.470;10.394;2022-08-06T10:11:06;2.43;;;0.90;;
6077;SDS011;3067;49.470;10.394;2022-08-06T10:13:34;1.23;;;1.10;;
6077;SDS011;3067;49.470;10.394;2022-08-06T10:16:13;1.80;;;0.93;;
6077;SDS011;3067;49.470;10.394;2022-08-06T10:18:41;1.50;;;1.00;;
6077;SDS011;3067;49.470;10.394;2022-08-06T10:21:10;1.43;;;0.90;;
6077;SDS011;3067;49.470;10.394;2022-08-06T10:23:40;0.80;;;0.80;;
6077;SDS011;3067;49.470;10.394;2022-08-06T10:26:08;2.30;;;1.00;;
6077;SDS011;3067;49.470;10.394;2022-08-06T10:28:36;0.90;;;0.90;;
6077;SDS011;3067;49.470;10.394;2022-08-06T10:31:05;4.03;;;1.00;;
6077;SDS011;3067;49.470;10.394;2022-08-06T10:33:33;4.50;;;1.10;;
6077;SDS011;3067;49.470;10.394;2022-08-06T10:36:04;1.90;;;1.40;;
6077;SDS011;3067;49.470;10.394;2022-08-06T10:38:33;1.67;;;0.90;;
6077;SDS011;3067;49.470;10.394;2022-08-06T10:41:03;1.00;;;1.00;;
6077;SDS011;3067;49.470;10.394;2022-08-06T10:43:31;6.67;;;1.00;;
6077;SDS011;3067;49.470;10.394;2022-08-06T10:46:07;1.07;;;0.80;;
6077;SDS011;3067;49.470;10.394;2022-08-06T10:48:38;1.10;;;1.00;;
6077;SDS011;3067;49.470;10.394;2022-08-06T10:51:07;0.90;;;0.90;;
6077;SDS011;3067;49.470;10.394;2022-08-06T10:53:36;3.03;;;1.13;;
6077;SDS011;3067;49.470;10.394;2022-08-06T10:56:05;2.00;;;0.90;;
6077;SDS011;3067;49.470;10.394;2022-08-06T10:58:33;0.70;;;0.70;;
6077;SDS011;3067;49.470;10.394;2022-08-06T11:01:02;1.13;;;0.90;;
6077;SDS011;3067;49.470;10.394;2022-08-06T11:03:32;1.10;;;1.00;;
6077;SDS011;3067;49.470;10.394;2022-08-06T11:06:18;1.00;;;0.90;;
6077;SDS011;3067;49.470;10.394;2022-08-06T11:08:50;1.10;;;0.90;;
6077;SDS011;3067;49.470;10.394;2022-08-06T11:11:30;1.30;;;0.80;;
6077;SDS011;3067;49.470;10.394;2022-08-06T11:14:01;0.90;;;0.90;;
6077;SDS011;3067;49.470;10.394;2022-08-06T11:16:30;1.37;;;0.87;;
6077;SDS011;3067;49.470;10.394;2022-08-06T11:18:58;3.90;;;0.87;;
6077;SDS011;3067;49.470;10.394;2022-08-06T11:21:35;0.90;;;0.80;;
6077;SDS011;3067;49.470;10.394;2022-08-06T11:24:04;2.70;;;0.77;;
6077;SDS011;3067;49.470;10.394;2022-08-06T11:26:34;5.63;;;0.80;;
6077;SDS011;3067;49.470;10.394;2022-08-06T11:29:02;1.17;;;0.80;;
6077;SDS011;3067;49.470;10.394;2022-08-06T11:31:40;2.40;;;0.80;;
6077;SDS011;3067;49.470;10.394;2022-08-06T11:34:09;1.13;;;0.90;;
6077;SDS011;3067;49.470;10.394;2022-08-06T11:36:46;5.40;;;0.80;;
6077;SDS011;3067;49.470;10.394;2022-08-06T11:39:14;3.60;;;0.80;;
6077;SDS011;3067;49.470;10.394;2022-08-06T11:41:47;0.80;;;0.80;;
6077;SDS011;3067;49.470;10.394;2022-08-06T11:44:15;2.03;;;0.80;;
6077;SDS011;3067;49.470;10.394;2022-08-06T11:46:44;0.90;;;0.70;;
6077;SDS011;3067;49.470;10.394;2022-08-06T11:49:16;0.70;;;0.70;;
6077;SDS011;3067;49.470;10.394;2022-08-06T11:51:45;1.37;;;0.93;;
6077;SDS011;3067;49.470;10.394;2022-08-06T11:54:13;6.10;;;0.70;;
6077;SDS011;3067;49.470;10.394;2022-08-06T11:59:28;3.73;;;0.80;;
6077;SDS011;3067;49.470;10.394;2022-08-06T12:01:56;1.17;;;0.73;;
6077;SDS011;3067;49.470;10.394;2022-08-06T12:04:38;5.60;;;0.80;;
6077;SDS011;3067;49.470;10.394;2022-08-06T12:07:14;0.80;;;0.80;;
6077;SDS011;3067;49.470;10.394;2022-08-06T12:09:41;1.33;;;0.97;;
6077;SDS011;3067;49.470;10.394;2022-08-06T12:14:57;1.00;;;0.80;;
6077;SDS011;3067;49.470;10.394;2022-08-06T12:17:25;1.27;;;0.80;;
6077;SDS011;3067;49.470;10.394;2022-08-06T12:19:53;0.93;;;0.80;;
6077;SDS011;3067;49.470;10.394;2022-08-06T12:22:22;1.23;;;0.80;;
6077;SDS011;3067;49.470;10.394;2022-08-06T12:24:50;1.23;;;0.80;;
6077;SDS011;3067;49.470;10.394;2022-08-06T12:27:19;0.80;;;0.80;;
6077;SDS011;3067;49.470;10.394;2022-08-06T12:29:47;4.23;;;0.90;;
6077;SDS011;3067;49.470;10.394;2022-08-06T12:32:22;0.70;;;0.70;;
6077;SDS011;3067;49.470;10.394;2022-08-06T12:34:50;0.80;;;0.70;;
6077;SDS011;3067;49.470;10.394;2022-08-06T12:37:18;0.87;;;0.80;;
6077;SDS011;3067;49.470;10.394;2022-08-06T12:39:45;0.90;;;0.90;;
6077;SDS011;3067;49.470;10.394;2022-08-06T12:42:31;6.20;;;1.07;;
6077;SDS011;3067;49.470;10.394;2022-08-06T12:44:59;4.70;;;0.70;;
6077;SDS011;3067;49.470;10.394;2022-08-06T12:47:27;1.13;;;0.70;;
6077;SDS011;3067;49.470;10.394;2022-08-06T12:49:55;0.70;;;0.67;;
6077;SDS011;3067;49.470;10.394;2022-08-06T12:52:22;0.80;;;0.80;;
6077;SDS011;3067;49.470;10.394;2022-08-06T12:54:49;0.80;;;0.80;;
6077;SDS011;3067;49.470;10.394;2022-08-06T12:57:20;0.70;;;0.70;;
6077;SDS011;3067;49.470;10.394;2022-08-06T12:59:48;0.90;;;0.70;;
6077;SDS011;3067;49.470;10.394;2022-08-06T13:02:16;2.10;;;0.70;;
6077;SDS011;3067;49.470;10.394;2022-08-06T13:04:46;0.70;;;0.70;;
6077;SDS011;3067;49.470;10.394;2022-08-06T13:07:16;1.87;;;0.80;;
6077;SDS011;3067;49.470;10.394;2022-08-06T13:09:45;1.67;;;0.80;;
6077;SDS011;3067;49.470;10.394;2022-08-06T13:12:13;1.27;;;0.73;;
6077;SDS011;3067;49.470;10.394;2022-08-06T13:14:48;0.80;;;0.60;;
6077;SDS011;3067;49.470;10.394;2022-08-06T13:17:17;0.70;;;0.70;;
6077;SDS011;3067;49.470;10.394;2022-08-06T13:19:51;0.80;;;0.80;;
6077;SDS011;3067;49.470;10.394;2022-08-06T13:22:19;4.77;;;0.80;;
6077;SDS011;3067;49.470;10.394;2022-08-06T13:24:46;0.70;;;0.70;;
6077;SDS011;3067;49.470;10.394;2022-08-06T13:27:14;2.90;;;0.73;;
6077;SDS011;3067;49.470;10.394;2022-08-06T13:29:59;1.10;;;0.80;;
6077;SDS011;3067;49.470;10.394;2022-08-06T13:32:28;0.60;;;0.60;;
6077;SDS011;3067;49.470;10.394;2022-08-06T13:34:57;2.40;;;0.50;;
6077;SDS011;3067;49.470;10.394;2022-08-06T13:37:40;1.80;;;0.70;;
6077;SDS011;3067;49.470;10.394;2022-08-06T13:40:08;1.63;;;0.80;;
6077;SDS011;3067;49.470;10.394;2022-08-06T13:42:46;2.97;;;0.70;;
6077;SDS011;3067;49.470;10.394;2022-08-06T13:45:23;0.60;;;0.60;;
6077;SDS011;3067;49.470;10.394;2022-08-06T13:48:00;4.10;;;0.70;;
6077;SDS011;3067;49.470;10.394;2022-08-06T13:50:29;2.60;;;0.60;;
6077;SDS011;3067;49.470;10.394;2022-08-06T13:52:58;1.37;;;0.70;;
6077;SDS011;3067;49.470;10.394;2022-08-06T13:55:26;0.77;;;0.60;;
6077;SDS011;3067;49.470;10.394;2022-08-06T13:57:54;4.80;;;0.70;;
6077;SDS011;3067;49.470;10.394;2022-08-06T14:00:21;4.80;;;0.60;;
6077;SDS011;3067;49.470;10.394;2022-08-06T14:02:49;3.33;;;0.80;;
6077;SDS011;3067;49.470;10.394;2022-08-06T14:05:16;0.90;;;0.70;;
6077;SDS011;3067;49.470;10.394;2022-08-06T14:07:45;0.90;;;0.90;;
6077;SDS011;3067;49.470;10.394;2022-08-06T14:10:13;1.63;;;0.70;;
6077;SDS011;3067;49.470;10.394;2022-08-06T14:12:40;1.43;;;0.70;;
6077;SDS011;3067;49.470;10.394;2022-08-06T14:15:08;1.23;;;0.70;;
6077;SDS011;3067;49.470;10.394;2022-08-06T14:17:36;4.63;;;0.70;;
6077;SDS011;3067;49.470;10.394;2022-08-06T14:20:04;0.70;;;0.70;;
6077;SDS011;3067;49.470;10.394;2022-08-06T14:22:31;4.07;;;0.70;;
6077;SDS011;3067;49.470;10.394;2022-08-06T14:25:00;0.52;;;0.52;;
6077;SDS011;3067;49.470;10.394;2022-08-06T14:27:27;1.88;;;1.15;;
6077;SDS011;3067;49.470;10.394;2022-08-06T14:29:55;2.35;;;0.60;;
6077;SDS011;3067;49.470;10.394;2022-08-06T14:32:22;3.92;;;0.60;;
6077;SDS011;3067;49.470;10.394;2022-08-06T14:34:49;1.77;;;0.60;;
6077;SDS011;3067;49.470;10.394;2022-08-06T14:37:20;1.88;;;0.70;;
6077;SDS011;3067;49.470;10.394;2022-08-06T14:39:48;0.98;;;0.60;;
6077;SDS011;3067;49.470;10.394;2022-08-06T14:42:16;0.70;;;0.68;;
6077;SDS011;3067;49.470;10.394;2022-08-06T14:45:01;2.58;;;0.60;;
6077;SDS011;3067;49.470;10.394;2022-08-06T14:47:31;0.60;;;0.60;;
6077;SDS011;3067;49.470;10.394;2022-08-06T14:49:58;1.60;;;0.80;;
6077;SDS011;3067;49.470;10.394;2022-08-06T14:52:25;6.22;;;0.90;;
6077;SDS011;3067;49.470;10.394;2022-08-06T14:54:53;0.60;;;0.60;;
6077;SDS011;3067;49.470;10.394;2022-08-06T14:57:22;1.90;;;0.60;;
6077;SDS011;3067;49.470;10.394;2022-08-06T14:59:49;1.63;;;0.60;;
6077;SDS011;3067;49.470;10.394;2022-08-06T15:02:17;0.95;;;0.70;;
6077;SDS011;3067;49.470;10.394;2022-08-06T15:04:44;2.63;;;0.70;;
6077;SDS011;3067;49.470;10.394;2022-08-06T15:07:11;0.93;;;0.50;;
6077;SDS011;3067;49.470;10.394;2022-08-06T15:09:39;2.92;;;0.70;;
6077;SDS011;3067;49.470;10.394;2022-08-06T15:12:06;0.60;;;0.60;;
6077;SDS011;3067;49.470;10.394;2022-08-06T15:14:35;0.90;;;0.60;;
6077;SDS011;3067;49.470;10.394;2022-08-06T15:17:03;1.95;;;0.60;;
6077;SDS011;3067;49.470;10.394;2022-08-06T15:19:30;2.15;;;0.60;;